createdAt,value
2018-08-16T00:00:44.474Z,83.59
2018-08-16T00:03:13.734Z,83.62
2018-08-16T00:05:43.309Z,82.92
2018-08-16T00:08:12.675Z,83.20
2018-08-16T00:10:42.005Z,83.56
2018-08-16T00:13:11.349Z,83.08
2018-08-16T00:15:40.605Z,83.07
2018-08-16T00:18:10.487Z,84.01
2018-08-16T00:20:39.792Z,84.35
2018-08-16T00:23:09.145Z,83.52
2018-08-16T00:25:40.195Z,84.05
2018-08-16T00:28:09.556Z,83.77
2018-08-16T00:30:39.013Z,84.28
2018-08-16T00:33:08.976Z,84.13
2018-08-16T00:35:38.334Z,84.89
2018-08-16T00:38:08.120Z,85.29
2018-08-16T00:40:37.501Z,85.20
2018-08-16T00:43:07.119Z,86.24
2018-08-16T00:45:36.747Z,86.30
2018-08-16T00:48:06.857Z,86.49
2018-08-16T00:50:36.569Z,85.89
2018-08-16T00:53:06.258Z,85.91
2018-08-16T00:55:35.773Z,86.58
2018-08-16T00:58:05.579Z,85.77
2018-08-16T01:00:34.998Z,86.29
2018-08-16T01:03:04.406Z,85.82
2018-08-16T01:05:33.834Z,86.65
2018-08-16T01:08:03.351Z,86.44
2018-08-16T01:10:34.085Z,86.58
2018-08-16T01:13:03.557Z,86.62
2018-08-16T01:15:32.950Z,86.71
2018-08-16T01:18:02.516Z,86.18
2018-08-16T01:20:33.079Z,86.38
2018-08-16T01:23:02.578Z,87.07
2018-08-16T01:25:32.251Z,86.62
2018-08-16T01:28:01.709Z,86.64
2018-08-16T01:30:31.261Z,86.30
2018-08-16T01:33:00.753Z,86.43
2018-08-16T01:35:30.310Z,87.17
2018-08-16T01:37:59.812Z,86.44
2018-08-16T01:40:29.235Z,87.07
2018-08-16T01:42:58.776Z,86.64
2018-08-16T01:45:28.228Z,87.15
2018-08-16T01:47:58.590Z,86.43
2018-08-16T01:50:28.085Z,87.00
2018-08-16T01:52:58.507Z,86.84
2018-08-16T01:55:28.216Z,86.08
2018-08-16T01:57:57.841Z,86.33
2018-08-16T02:00:27.350Z,86.86
2018-08-16T02:02:57.395Z,86.12
2018-08-16T02:05:26.779Z,86.28
2018-08-16T02:07:56.999Z,87.23
2018-08-16T02:10:26.776Z,86.72
2018-08-16T02:12:57.325Z,86.83
2018-08-16T02:15:28.168Z,87.12
2018-08-16T02:17:57.645Z,86.73
2018-08-16T02:20:28.089Z,87.18
2018-08-16T02:22:57.707Z,86.91
2018-08-16T02:25:27.163Z,86.22
2018-08-16T02:27:56.940Z,85.63
2018-08-16T02:30:26.503Z,85.83
2018-08-16T02:32:55.802Z,86.26
2018-08-16T02:35:25.442Z,85.53
2018-08-16T02:37:54.834Z,86.29
2018-08-16T02:40:24.219Z,85.48
2018-08-16T02:42:53.561Z,85.47
2018-08-16T02:45:22.894Z,85.70
2018-08-16T02:47:52.161Z,85.79
2018-08-16T02:50:21.463Z,85.83
2018-08-16T02:52:50.869Z,85.09
2018-08-16T02:55:20.133Z,86.02
2018-08-16T02:57:49.437Z,86.05
2018-08-16T03:00:18.843Z,85.64
2018-08-16T03:02:48.218Z,85.32
2018-08-16T03:05:17.593Z,86.03
2018-08-16T03:07:46.904Z,85.53
2018-08-16T03:10:16.276Z,86.00
2018-08-16T03:12:46.323Z,86.03
2018-08-16T03:15:16.234Z,85.24
2018-08-16T03:17:45.713Z,85.51
2018-08-16T03:20:15.065Z,86.20
2018-08-16T03:22:44.430Z,85.63
2018-08-16T03:25:13.767Z,86.48
2018-08-16T03:27:43.066Z,86.30
2018-08-16T03:30:12.492Z,86.12
2018-08-16T03:32:41.793Z,86.07
2018-08-16T03:35:11.243Z,86.49
2018-08-16T03:37:40.786Z,85.87
2018-08-16T03:40:10.230Z,86.17
2018-08-16T03:42:39.622Z,85.94
2018-08-16T03:45:09.263Z,86.22
2018-08-16T03:47:38.821Z,86.71
2018-08-16T03:50:08.940Z,87.14
2018-08-16T03:52:38.553Z,87.70
2018-08-16T03:55:07.924Z,86.98
2018-08-16T03:57:37.560Z,87.88
2018-08-16T04:00:07.631Z,87.31
2018-08-16T04:02:37.166Z,87.34
2018-08-16T04:05:07.103Z,87.58
2018-08-16T04:07:36.530Z,88.32
2018-08-16T04:10:05.952Z,89.03
2018-08-16T04:12:35.812Z,88.04
2018-08-16T04:15:05.470Z,88.44
2018-08-16T04:17:36.561Z,89.08
2018-08-16T04:20:07.085Z,88.24
2018-08-16T04:22:36.738Z,88.28
2018-08-16T04:25:06.055Z,88.35
2018-08-16T04:27:35.581Z,88.54
2018-08-16T04:30:06.142Z,89.11
2018-08-16T04:32:35.466Z,89.22
2018-08-16T04:35:06.563Z,89.10
2018-08-16T04:37:36.249Z,89.02
2018-08-16T04:40:05.864Z,88.42
2018-08-16T04:42:35.227Z,88.28
2018-08-16T04:45:06.174Z,88.43
2018-08-16T04:47:35.555Z,87.84
2018-08-16T04:50:06.692Z,88.64
2018-08-16T04:52:36.113Z,88.32
2018-08-16T04:55:06.519Z,87.69
2018-08-16T04:57:36.584Z,87.80
2018-08-16T05:00:08.069Z,88.00
2018-08-16T05:02:37.429Z,87.41
2018-08-16T05:05:07.121Z,86.50
2018-08-16T05:07:36.725Z,86.62
2018-08-16T05:10:07.753Z,86.27
2018-08-16T05:12:37.153Z,85.99
2018-08-16T05:15:09.358Z,85.54
2018-08-16T05:17:38.741Z,85.55
2018-08-16T05:20:11.321Z,85.77
2018-08-16T05:22:40.733Z,84.76
2018-08-16T05:25:10.114Z,85.19
2018-08-16T05:27:39.823Z,84.63
2018-08-16T05:30:11.300Z,84.81
2018-08-16T05:32:40.793Z,84.19
2018-08-16T05:35:10.205Z,83.94
2018-08-16T05:37:39.619Z,84.56
2018-08-16T05:40:10.427Z,83.56
2018-08-16T05:42:41.186Z,83.50
2018-08-16T05:45:10.981Z,82.71
2018-08-16T05:47:41.296Z,83.42
2018-08-16T05:50:12.253Z,82.81
2018-08-16T05:52:42.355Z,82.13
2018-08-16T05:55:11.856Z,82.79
2018-08-16T05:57:41.210Z,82.49
2018-08-16T06:00:13.981Z,82.80
2018-08-16T06:02:43.301Z,82.72
2018-08-16T06:05:12.865Z,82.67
2018-08-16T06:07:42.386Z,82.63
2018-08-16T06:10:11.562Z,82.03
2018-08-16T06:12:40.991Z,82.12
2018-08-16T06:15:11.258Z,82.67
2018-08-16T06:17:40.736Z,82.23
2018-08-16T06:20:11.827Z,81.12
2018-08-16T06:22:41.521Z,81.33
2018-08-16T06:25:12.792Z,80.49
2018-08-16T06:27:42.474Z,80.71
2018-08-16T06:30:14.185Z,80.08
2018-08-16T06:32:44.309Z,79.57
2018-08-16T06:35:13.574Z,79.83
2018-08-16T06:37:43.217Z,78.87
2018-08-16T06:40:15.136Z,78.97
2018-08-16T06:42:45.037Z,78.09
2018-08-16T06:45:14.517Z,78.59
2018-08-16T06:47:43.869Z,78.26
2018-08-16T06:50:13.162Z,77.64
2018-08-16T06:52:42.745Z,77.76
2018-08-16T06:55:12.335Z,77.07
2018-08-16T06:57:41.681Z,77.04
2018-08-16T07:00:11.035Z,76.81
2018-08-16T07:02:40.488Z,76.46
2018-08-16T07:05:09.906Z,76.19
2018-08-16T07:07:39.238Z,75.43
2018-08-16T07:10:10.698Z,74.57
2018-08-16T07:12:41.044Z,73.75
2018-08-16T07:15:15.253Z,73.36
2018-08-16T07:17:45.392Z,71.54
2018-08-16T07:20:14.804Z,70.79
2018-08-16T07:22:44.104Z,71.19
2018-08-16T07:25:13.523Z,71.53
2018-08-16T07:27:42.870Z,71.79
2018-08-16T07:30:34.104Z,70.34
2018-08-16T07:33:03.809Z,71.00
2018-08-16T07:35:33.402Z,71.18
2018-08-16T07:38:03.247Z,70.84
2018-08-16T07:40:33.032Z,69.18
2018-08-16T07:43:02.464Z,68.75
2018-08-16T07:45:32.058Z,68.54
2018-08-16T07:48:01.678Z,69.85
2018-08-16T07:50:31.200Z,69.70
2018-08-16T07:53:01.030Z,69.06
2018-08-16T07:55:30.500Z,69.48
2018-08-16T07:58:00.029Z,69.62
2018-08-16T08:00:29.922Z,69.21
2018-08-16T08:02:59.625Z,68.93
2018-08-16T08:05:29.280Z,69.25
2018-08-16T08:07:58.793Z,68.12
2018-08-16T08:10:28.593Z,69.17
2018-08-16T08:12:58.214Z,68.16
2018-08-16T08:15:28.306Z,67.78
2018-08-16T08:17:57.791Z,67.54
2018-08-16T08:20:27.272Z,67.12
2018-08-16T08:22:56.792Z,65.15
2018-08-16T08:25:26.472Z,64.11
2018-08-16T08:27:55.914Z,64.32
2018-08-16T08:30:25.277Z,65.26
2018-08-16T08:32:54.620Z,64.42
2018-08-16T08:35:23.945Z,63.29
2018-08-16T08:38:02.253Z,64.23
2018-08-16T08:40:31.907Z,64.30
2018-08-16T08:43:01.464Z,64.56
2018-08-16T08:45:31.017Z,63.76
2018-08-16T08:48:00.584Z,62.75
2018-08-16T08:50:30.361Z,62.75
2018-08-16T08:53:11.008Z,61.56
2018-08-16T08:55:51.526Z,62.23
2018-08-16T08:58:32.294Z,61.81
2018-08-16T09:01:02.091Z,60.84
2018-08-16T09:03:31.619Z,61.69
2018-08-16T09:06:01.171Z,62.23
2018-08-16T09:08:30.726Z,62.14
2018-08-16T09:11:18.088Z,61.48
2018-08-16T09:14:00.938Z,60.34
2018-08-16T09:16:34.473Z,60.71
2018-08-16T09:19:04.667Z,61.50
2018-08-16T09:21:34.633Z,61.41
2018-08-16T09:24:04.242Z,59.08
2018-08-16T09:26:41.026Z,58.88
2018-08-16T09:29:30.928Z,58.10
2018-08-16T09:33:09.967Z,54.39
2018-08-16T09:35:39.737Z,53.13
2018-08-16T09:38:09.182Z,51.32
2018-08-16T09:40:38.482Z,52.42
2018-08-16T09:43:07.831Z,52.31
2018-08-16T09:46:49.876Z,50.21
2018-08-16T09:49:19.423Z,49.06
2018-08-16T09:51:48.979Z,48.21
2018-08-16T09:54:18.185Z,47.78
2018-08-16T09:56:48.041Z,49.94
2018-08-16T09:59:17.852Z,49.79
2018-08-16T10:01:47.202Z,49.78
2018-08-16T10:04:16.654Z,50.89
2018-08-16T10:06:46.453Z,51.22
2018-08-16T10:09:22.090Z,52.14
2018-08-16T10:11:51.772Z,52.46
2018-08-16T10:14:23.157Z,49.41
2018-08-16T10:16:52.906Z,47.04
2018-08-16T10:19:23.101Z,44.85
2018-08-16T10:21:52.469Z,41.97
2018-08-16T10:24:22.310Z,42.97
2018-08-16T10:26:51.758Z,42.42
2018-08-16T10:29:22.534Z,40.85
2018-08-16T10:31:52.930Z,41.47
2018-08-16T10:34:24.301Z,42.92
2018-08-16T10:36:53.904Z,43.00
2018-08-16T10:39:23.329Z,42.85
2018-08-16T10:41:52.682Z,43.90
2018-08-16T10:44:22.271Z,44.60
2018-08-16T10:46:51.444Z,46.10
2018-08-16T10:49:20.873Z,47.83
2018-08-16T10:51:50.246Z,49.29
2018-08-16T10:54:19.525Z,48.73
2018-08-16T10:56:48.875Z,49.45
2018-08-16T10:59:18.815Z,50.17
2018-08-16T11:01:48.091Z,49.64
2018-08-16T11:04:17.595Z,46.25
2018-08-16T11:06:47.015Z,43.34
2018-08-16T11:09:16.422Z,42.52
2018-08-16T11:11:46.549Z,42.51
2018-08-16T11:14:16.265Z,43.09
2018-08-16T11:16:45.526Z,45.03
2018-08-16T11:19:15.053Z,46.73
2018-08-16T11:21:44.310Z,46.10
2018-08-16T11:24:13.676Z,46.29
2018-08-16T11:26:43.097Z,45.55
2018-08-16T11:29:12.682Z,44.95
2018-08-16T11:31:42.021Z,43.84
2018-08-16T11:34:11.356Z,44.59
2018-08-16T11:36:40.689Z,45.11
2018-08-16T11:39:10.069Z,42.31
2018-08-16T11:41:39.738Z,41.18
2018-08-16T11:44:09.077Z,42.87
2018-08-16T11:46:38.506Z,42.56
2018-08-16T11:49:07.725Z,41.04
2018-08-16T11:51:37.500Z,39.94
2018-08-16T11:54:07.440Z,39.15
2018-08-16T11:56:37.136Z,37.65
2018-08-16T11:59:06.753Z,38.35
2018-08-16T12:01:36.408Z,37.87
2018-08-16T12:04:06.580Z,37.60
2018-08-16T12:06:36.122Z,36.04
2018-08-16T12:09:08.442Z,36.68
2018-08-16T12:11:38.037Z,35.10
2018-08-16T12:14:07.627Z,34.17
2018-08-16T12:16:37.277Z,34.13
2018-08-16T12:19:06.832Z,34.54
2018-08-16T12:21:36.209Z,35.21
2018-08-16T12:24:05.694Z,35.97
2018-08-16T12:26:35.410Z,35.46
2018-08-16T12:29:04.936Z,36.42
2018-08-16T12:31:34.342Z,35.76
2018-08-16T12:34:03.834Z,35.93
2018-08-16T12:36:33.198Z,35.67
2018-08-16T12:39:02.870Z,34.98
2018-08-16T12:41:32.310Z,35.58
2018-08-16T12:44:01.924Z,36.28
2018-08-16T12:46:31.936Z,36.99
2018-08-16T12:49:01.327Z,37.50
2018-08-16T12:51:30.839Z,38.33
2018-08-16T12:54:00.377Z,36.62
2018-08-16T12:56:29.812Z,38.10
2018-08-16T12:58:59.332Z,39.43
2018-08-16T13:01:28.735Z,37.55
2018-08-16T13:03:58.645Z,38.51
2018-08-16T13:06:28.154Z,37.64
2018-08-16T13:08:57.724Z,37.06
2018-08-16T13:11:27.447Z,38.01
2018-08-16T13:13:56.873Z,37.53
2018-08-16T13:16:26.862Z,37.28
2018-08-16T13:18:56.422Z,37.68
2018-08-16T13:21:26.005Z,36.95
2018-08-16T13:23:55.513Z,35.71
2018-08-16T13:26:25.079Z,35.39
2018-08-16T13:28:54.437Z,34.59
2018-08-16T13:31:24.102Z,35.21
2018-08-16T13:33:53.362Z,35.26
2018-08-16T13:36:24.392Z,35.59
2018-08-16T13:38:53.920Z,35.27
2018-08-16T13:41:23.371Z,35.69
2018-08-16T13:43:53.268Z,36.80
2018-08-16T13:46:23.634Z,36.05
2018-08-16T13:48:53.026Z,36.80
2018-08-16T13:51:22.422Z,36.10
2018-08-16T13:53:52.786Z,38.48
2018-08-16T13:56:22.532Z,37.69
2018-08-16T13:58:51.900Z,37.30
2018-08-16T14:01:21.260Z,37.76
2018-08-16T14:03:50.558Z,38.57
2018-08-16T14:06:19.817Z,39.41
2018-08-16T14:08:49.202Z,38.75
2018-08-16T14:11:18.442Z,37.19
2018-08-16T14:13:48.026Z,37.10
2018-08-16T14:16:17.461Z,37.06
2018-08-16T14:18:46.727Z,39.09
2018-08-16T14:21:16.026Z,38.46
2018-08-16T14:23:45.669Z,38.11
2018-08-16T14:26:14.973Z,38.31
2018-08-16T14:28:44.226Z,38.50
2018-08-16T14:31:13.594Z,39.50
2018-08-16T14:33:42.950Z,40.29
2018-08-16T14:36:12.232Z,40.10
2018-08-16T14:38:41.728Z,41.50
2018-08-16T14:41:11.048Z,40.76
2018-08-16T14:43:41.098Z,42.39
2018-08-16T14:46:10.436Z,41.95
2018-08-16T14:48:39.799Z,39.82
2018-08-16T14:51:09.072Z,37.69
2018-08-16T14:53:38.746Z,36.47
2018-08-16T14:56:08.210Z,34.17
2018-08-16T14:58:37.939Z,34.04
2018-08-16T15:01:07.469Z,34.42
2018-08-16T15:05:01.986Z,34.07
2018-08-16T15:07:31.385Z,37.07
2018-08-16T15:10:00.980Z,38.13
2018-08-16T15:12:30.789Z,37.89
2018-08-16T15:15:00.704Z,37.26
2018-08-16T15:17:30.261Z,37.54
2018-08-16T15:20:04.770Z,36.93
2018-08-16T15:22:34.258Z,35.73
2018-08-16T15:25:03.996Z,36.93
2018-08-16T15:27:33.661Z,37.49
2018-08-16T15:30:03.209Z,38.19
2018-08-16T15:32:32.793Z,39.07
2018-08-16T15:35:02.430Z,40.08
2018-08-16T15:37:32.765Z,40.24
2018-08-16T15:40:02.406Z,42.03
2018-08-16T15:42:32.128Z,40.83
2018-08-16T15:45:01.678Z,41.25
2018-08-16T15:47:31.172Z,41.32
2018-08-16T15:50:01.484Z,41.82
2018-08-16T15:52:31.120Z,42.26
2018-08-16T15:55:01.004Z,43.59
2018-08-16T15:57:30.524Z,43.28
2018-08-16T16:00:00.313Z,43.13
2018-08-16T16:02:30.127Z,43.34
2018-08-16T16:04:59.849Z,43.23
2018-08-16T16:07:29.478Z,43.09
2018-08-16T16:09:59.105Z,43.93
2018-08-16T16:12:28.698Z,44.83
2018-08-16T16:14:59.872Z,45.11
2018-08-16T16:17:29.645Z,44.48
2018-08-16T16:19:59.438Z,44.90
2018-08-16T16:22:29.115Z,44.88
2018-08-16T16:24:58.674Z,46.37
2018-08-16T16:27:28.128Z,45.67
2018-08-16T16:29:57.608Z,45.69
2018-08-16T16:32:27.381Z,45.42
2018-08-16T16:34:56.846Z,46.16
2018-08-16T16:37:26.225Z,45.98
2018-08-16T16:39:55.713Z,45.19
2018-08-16T16:42:25.200Z,45.86
2018-08-16T16:44:54.522Z,46.18
2018-08-16T16:47:23.898Z,46.76
2018-08-16T16:49:53.200Z,47.67
2018-08-16T16:52:22.489Z,47.95
2018-08-16T16:54:51.893Z,48.06
2018-08-16T16:57:21.275Z,48.17
2018-08-16T16:59:50.558Z,47.83
2018-08-16T17:02:19.888Z,48.85
2018-08-16T17:04:49.279Z,48.23
2018-08-16T17:07:18.701Z,48.34
2018-08-16T17:09:48.100Z,49.63
2018-08-16T17:12:17.464Z,50.47
2018-08-16T17:14:46.879Z,51.51
2018-08-16T17:17:16.550Z,51.55
2018-08-16T17:19:45.850Z,52.81
2018-08-16T17:22:15.194Z,53.34
2018-08-16T17:24:44.683Z,53.80
2018-08-16T17:27:14.217Z,54.35
2018-08-16T17:29:43.538Z,54.16
2018-08-16T17:32:13.517Z,53.75
2018-08-16T17:34:42.781Z,55.22
2018-08-16T17:37:12.116Z,54.70
2018-08-16T17:39:41.528Z,55.36
2018-08-16T17:42:11.038Z,55.65
2018-08-16T17:44:43.101Z,56.48
2018-08-16T17:47:12.851Z,57.16
2018-08-16T17:49:42.287Z,57.83
2018-08-16T17:52:11.677Z,58.83
2018-08-16T17:54:40.939Z,57.78
2018-08-16T17:57:10.265Z,58.70
2018-08-16T17:59:39.817Z,57.96
2018-08-16T18:02:09.357Z,58.66
2018-08-16T18:04:38.801Z,59.88
2018-08-16T18:07:08.613Z,59.53
2018-08-16T18:09:38.231Z,60.29
2018-08-16T18:12:07.798Z,60.18
2018-08-16T18:14:37.560Z,61.06
2018-08-16T18:17:07.230Z,60.11
2018-08-16T18:19:38.944Z,60.08
2018-08-16T18:22:08.844Z,60.74
2018-08-16T18:24:38.525Z,60.83
2018-08-16T18:27:08.206Z,61.21
2018-08-16T18:29:43.956Z,61.09
2018-08-16T18:32:13.320Z,61.66
2018-08-16T18:34:42.945Z,61.82
2018-08-16T18:37:12.233Z,61.67
2018-08-16T18:39:41.650Z,62.96
2018-08-16T18:42:11.719Z,62.80
2018-08-16T18:44:41.065Z,62.38
2018-08-16T18:48:34.949Z,63.09
2018-08-16T18:51:05.117Z,62.90
2018-08-16T18:53:39.381Z,63.96
2018-08-16T18:56:09.186Z,64.37
2018-08-16T18:58:38.994Z,64.07
2018-08-16T19:01:08.544Z,63.95
2018-08-16T19:03:48.550Z,64.92
2018-08-16T19:06:18.600Z,64.44
2018-08-16T19:08:47.911Z,64.67
2018-08-16T19:11:17.388Z,64.34
2018-08-16T19:13:46.676Z,64.30
2018-08-16T19:16:16.170Z,65.09
2018-08-16T19:18:45.449Z,64.69
2018-08-16T19:21:14.795Z,65.31
2018-08-16T19:23:44.281Z,65.32
2018-08-16T19:26:13.543Z,65.22
2018-08-16T19:28:42.840Z,65.40
2018-08-16T19:31:13.029Z,65.62
2018-08-16T19:33:42.264Z,67.00
2018-08-16T19:36:11.868Z,66.58
2018-08-16T19:38:41.364Z,66.94
2018-08-16T19:41:10.894Z,67.82
2018-08-16T19:43:40.240Z,67.56
2018-08-16T19:46:09.833Z,68.44
2018-08-16T19:48:40.711Z,68.30
2018-08-16T19:51:10.165Z,69.31
2018-08-16T19:53:39.943Z,68.01
2018-08-16T19:56:09.545Z,68.62
2018-08-16T19:58:39.150Z,69.10
2018-08-16T20:01:08.716Z,69.04
2018-08-16T20:03:38.103Z,68.64
2018-08-16T20:06:08.639Z,67.72
2018-08-16T20:08:38.762Z,66.99
2018-08-16T20:11:09.569Z,67.31
2018-08-16T20:13:40.895Z,66.48
2018-08-16T20:16:16.642Z,66.44
2018-08-16T20:18:49.670Z,67.16
2018-08-16T20:21:19.589Z,68.03
2018-08-16T20:23:48.931Z,67.98
2018-08-16T20:26:18.246Z,68.62
2018-08-16T20:28:47.821Z,67.87
2018-08-16T20:31:17.493Z,68.92
2018-08-16T20:33:47.145Z,69.06
2018-08-16T20:36:16.560Z,69.55
2018-08-16T20:38:46.021Z,69.96
2018-08-16T20:41:15.392Z,70.18
2018-08-16T20:43:45.446Z,70.52
2018-08-16T20:46:14.886Z,70.79
2018-08-16T20:48:44.259Z,71.03
2018-08-16T20:51:13.655Z,70.91
2018-08-16T20:53:43.113Z,71.72
2018-08-16T20:56:12.679Z,71.58
2018-08-16T20:58:42.296Z,72.40
2018-08-16T21:01:12.299Z,72.47
2018-08-16T21:03:42.289Z,72.21
2018-08-16T21:06:11.973Z,72.50
2018-08-16T21:08:41.590Z,73.38
2018-08-16T21:11:11.454Z,73.47
2018-08-16T21:13:41.004Z,73.98
2018-08-16T21:16:10.406Z,74.31
2018-08-16T21:18:40.697Z,73.96
2018-08-16T21:21:12.389Z,75.20
2018-08-16T21:23:41.695Z,74.70
2018-08-16T21:26:12.113Z,75.42
2018-08-16T21:28:41.796Z,75.60
2018-08-16T21:31:11.417Z,75.72
2018-08-16T21:33:40.909Z,76.98
2018-08-16T21:36:10.596Z,77.72
2018-08-16T21:38:40.657Z,78.09
2018-08-16T21:41:10.444Z,77.56
2018-08-16T21:43:40.128Z,78.69
2018-08-16T21:46:10.201Z,79.31
2018-08-16T21:48:39.736Z,80.33
2018-08-16T21:51:09.295Z,80.29
2018-08-16T21:53:38.738Z,80.64
2018-08-16T21:56:08.987Z,80.86
2018-08-16T21:58:38.827Z,81.63
2018-08-16T22:01:08.812Z,81.23
2018-08-16T22:03:38.225Z,81.98
2018-08-16T22:06:09.907Z,81.46
2018-08-16T22:08:40.980Z,82.12
2018-08-16T22:11:10.637Z,82.56
2018-08-16T22:13:40.467Z,82.79
2018-08-16T22:16:10.264Z,82.73
2018-08-16T22:18:40.318Z,83.45
2018-08-16T22:21:10.396Z,83.39
2018-08-16T22:23:40.104Z,83.20
2018-08-16T22:26:10.057Z,83.99
2018-08-16T22:28:39.735Z,84.20
2018-08-16T22:31:09.438Z,84.00
2018-08-16T22:33:38.913Z,83.86
2018-08-16T22:36:08.807Z,84.00
2018-08-16T22:38:38.399Z,84.68
2018-08-16T22:41:07.805Z,84.20
2018-08-16T22:43:37.265Z,83.92
2018-08-16T22:46:08.653Z,84.56
2018-08-16T22:48:38.240Z,84.29
2018-08-16T22:51:07.749Z,84.97
2018-08-16T22:53:37.241Z,85.00
2018-08-16T22:56:07.270Z,85.11
2018-08-16T22:58:36.671Z,84.99
2018-08-16T23:01:06.275Z,85.71
2018-08-16T23:03:37.076Z,85.25
2018-08-16T23:06:06.578Z,85.72
2018-08-16T23:08:36.144Z,85.97
2018-08-16T23:11:05.815Z,85.62
2018-08-16T23:13:35.094Z,86.06
2018-08-16T23:16:04.542Z,85.41
2018-08-16T23:18:34.285Z,85.87
2018-08-16T23:35:22.496Z,86.56
2018-08-16T23:37:51.784Z,86.28
2018-08-16T23:40:21.252Z,86.62
2018-08-16T23:42:50.964Z,87.43
2018-08-16T23:45:20.445Z,88.27
2018-08-16T23:48:01.179Z,87.67
2018-08-16T23:50:31.059Z,88.17
2018-08-16T23:53:00.806Z,87.91
2018-08-16T23:55:30.921Z,88.86
2018-08-16T23:58:00.748Z,89.16
